Time;durP1;ratioP1;P1;durP2;ratioP2;P2;SDS_P1;SDS_P2;PMS_P1;PMS_P2;Temp;Humidity;BMP_temperature;BMP_pressure;BME280_temperature;BME280_humidity;BME280_pressure;Samples;Min_cycle;Max_cycle;Signal;HPM_P1;HPM_P2
2021/07/04 00:00:16;;;;;;;87.93;37.40;;;18.70;99.90;;;;;;5094864;28;20297;-80
2021/07/04 00:02:43;;;;;;;108.30;43.17;;;18.70;99.90;;;;;;5092144;28;20199;-80
2021/07/04 00:05:13;;;;;;;102.03;41.70;;;18.70;99.90;;;;;;5094641;28;20682;-77
2021/07/04 00:07:41;;;;;;;90.63;38.37;;;18.70;99.90;;;;;;5091991;28;20552;-80
2021/07/04 00:10:10;;;;;;;85.37;37.93;;;18.60;99.90;;;;;;5095390;28;20295;-77
2021/07/04 00:12:37;;;;;;;92.23;37.67;;;18.50;99.90;;;;;;5095439;28;20194;-77
2021/07/04 00:15:08;;;;;;;99.37;38.53;;;18.50;99.90;;;;;;5095128;28;20294;-76
2021/07/04 00:17:35;;;;;;;90.50;38.60;;;18.40;99.90;;;;;;5082591;28;20233;-80
2021/07/04 00:20:05;;;;;;;91.47;37.27;;;18.30;99.90;;;;;;5094972;28;20294;-77
2021/07/04 00:22:32;;;;;;;92.07;36.80;;;18.30;99.90;;;;;;5094589;28;20230;-77
2021/07/04 00:24:59;;;;;;;91.73;35.70;;;18.10;99.90;;;;;;5095047;28;20253;-77
2021/07/04 00:27:26;;;;;;;89.63;35.90;;;18.00;99.90;;;;;;5095061;28;20210;-80
2021/07/04 00:29:53;;;;;;;88.90;35.13;;;17.90;99.90;;;;;;5095020;28;20321;-78
2021/07/04 00:32:21;;;;;;;78.53;33.23;;;17.80;99.90;;;;;;5094818;28;20222;-79
2021/07/04 00:34:48;;;;;;;80.27;32.53;;;17.80;99.90;;;;;;5094858;28;20290;-77
2021/07/04 00:37:15;;;;;;;83.17;32.83;;;17.80;99.90;;;;;;5094927;28;20301;-79
2021/07/04 00:39:42;;;;;;;104.50;37.07;;;17.70;99.90;;;;;;5086896;28;20241;-77
2021/07/04 00:42:11;;;;;;;100.03;37.77;;;17.60;99.90;;;;;;5074656;28;20235;-77
2021/07/04 00:44:38;;;;;;;99.83;37.70;;;17.60;99.90;;;;;;5074676;28;20274;-77
2021/07/04 00:47:05;;;;;;;102.60;37.43;;;17.60;99.90;;;;;;5074070;28;20562;-77
2021/07/04 00:49:33;;;;;;;107.83;36.07;;;17.50;99.90;;;;;;5074343;28;20258;-77
2021/07/04 00:52:00;;;;;;;96.37;34.40;;;17.50;99.90;;;;;;5074839;28;20294;-77
2021/07/04 00:54:28;;;;;;;87.37;33.57;;;17.40;99.90;;;;;;5074359;28;20238;-79
2021/07/04 00:56:55;;;;;;;88.40;32.40;;;17.50;99.90;;;;;;5074139;28;20741;-77
2021/07/04 00:59:22;;;;;;;98.70;34.77;;;17.40;99.90;;;;;;5073714;28;20745;-79
2021/07/04 01:01:49;;;;;;;83.10;31.97;;;17.40;99.90;;;;;;5074431;28;20681;-78
2021/07/04 01:04:16;;;;;;;93.83;33.20;;;17.30;99.90;;;;;;5074368;28;20290;-77
2021/07/04 01:06:44;;;;;;;88.03;31.53;;;17.30;99.90;;;;;;5073992;28;20196;-81
2021/07/04 01:09:11;;;;;;;82.03;31.03;;;17.30;99.90;;;;;;5074255;28;20290;-77
2021/07/04 01:11:38;;;;;;;81.60;29.93;;;17.20;99.90;;;;;;5073722;28;20329;-78
2021/07/04 01:14:05;;;;;;;83.33;29.57;;;17.20;99.90;;;;;;5072817;28;20286;-77
2021/07/04 01:16:32;;;;;;;78.73;29.50;;;17.20;99.90;;;;;;5073733;28;20286;-77
2021/07/04 01:18:59;;;;;;;69.10;28.27;;;17.10;99.90;;;;;;5074249;28;20257;-79
2021/07/04 01:21:28;;;;;;;80.07;28.13;;;17.10;99.90;;;;;;5073770;28;20260;-77
2021/07/04 01:23:57;;;;;;;81.00;27.90;;;17.10;99.90;;;;;;5073411;28;20207;-77
2021/07/04 01:26:23;;;;;;;66.27;27.63;;;17.20;99.90;;;;;;5073773;28;20230;-77
2021/07/04 01:28:51;;;;;;;66.77;27.10;;;17.30;99.90;;;;;;5072922;28;20290;-77
2021/07/04 01:31:18;;;;;;;63.00;27.37;;;17.40;99.90;;;;;;5072298;28;20254;-80
2021/07/04 01:33:44;;;;;;;78.03;27.37;;;17.50;99.90;;;;;;5072127;28;20202;-77
2021/07/04 01:36:11;;;;;;;59.10;25.30;;;17.50;99.90;;;;;;5071792;28;20206;-77
2021/07/04 01:38:40;;;;;;;70.97;27.07;;;17.60;99.90;;;;;;5071786;28;20196;-77
2021/07/04 01:41:08;;;;;;;59.70;25.80;;;17.70;99.90;;;;;;5110435;28;20290;-77
2021/07/04 01:43:35;;;;;;;57.20;24.07;;;17.70;99.90;;;;;;5112370;28;20198;-80
2021/07/04 01:46:02;;;;;;;60.60;24.23;;;17.70;99.90;;;;;;5113868;28;20237;-80
2021/07/04 01:48:29;;;;;;;61.00;24.87;;;17.80;99.90;;;;;;5113314;28;20225;-78
2021/07/04 01:50:56;;;;;;;53.40;23.80;;;17.90;99.90;;;;;;5113447;28;20265;-77
2021/07/04 01:53:23;;;;;;;61.83;23.80;;;17.90;99.90;;;;;;5113869;28;20281;-77
2021/07/04 01:55:50;;;;;;;58.17;24.70;;;18.00;99.90;;;;;;5111647;28;20293;-77
2021/07/04 01:58:19;;;;;;;54.20;24.00;;;18.00;99.90;;;;;;5093045;28;20287;-79
2021/07/04 02:00:46;;;;;;;60.33;24.40;;;18.00;99.90;;;;;;5090082;28;20290;-77
2021/07/04 02:03:13;;;;;;;53.90;23.13;;;18.10;99.90;;;;;;5092647;28;20289;-77
2021/07/04 02:05:41;;;;;;;50.30;23.03;;;18.10;99.90;;;;;;5092746;28;20274;-78
2021/07/04 02:08:08;;;;;;;62.03;25.20;;;18.10;99.90;;;;;;5092682;28;20690;-77
2021/07/04 02:10:37;;;;;;;54.50;24.00;;;18.10;99.90;;;;;;5092848;28;20225;-79
2021/07/04 02:13:05;;;;;;;60.97;25.17;;;18.10;99.90;;;;;;5092308;28;20732;-77
2021/07/04 02:15:35;;;;;;;48.93;23.53;;;18.10;99.90;;;;;;5092698;28;20198;-77
2021/07/04 02:18:04;;;;;;;52.40;23.47;;;18.00;99.90;;;;;;5092641;28;20195;-77
2021/07/04 02:20:37;;;;;;;54.70;25.70;;;18.10;99.90;;;;;;5092917;28;20286;-77
2021/07/04 02:23:08;;;;;;;52.33;24.60;;;18.20;99.90;;;;;;5092825;28;20289;-77
2021/07/04 02:25:36;;;;;;;56.93;24.67;;;18.20;99.90;;;;;;5092689;28;20282;-78
2021/07/04 02:28:03;;;;;;;63.73;26.23;;;18.20;99.90;;;;;;5092896;28;20245;-77
2021/07/04 02:30:31;;;;;;;57.13;26.40;;;18.20;99.90;;;;;;5092738;28;20223;-80
2021/07/04 02:33:02;;;;;;;64.13;26.93;;;18.30;99.90;;;;;;5092899;28;20237;-80
2021/07/04 02:35:30;;;;;;;56.67;26.57;;;18.20;99.90;;;;;;5092962;28;20202;-80
2021/07/04 02:37:57;;;;;;;61.57;27.40;;;18.20;99.90;;;;;;5093000;28;20259;-80
2021/07/04 02:40:25;;;;;;;57.13;26.30;;;18.20;99.90;;;;;;5106207;28;20247;-78
2021/07/04 02:42:52;;;;;;;60.50;28.43;;;18.10;99.90;;;;;;5112882;28;20656;-78
2021/07/04 02:45:19;;;;;;;59.97;27.50;;;18.20;99.90;;;;;;5113485;28;20288;-78
2021/07/04 02:47:47;;;;;;;56.47;27.50;;;18.10;99.90;;;;;;5112930;28;20547;-80
2021/07/04 02:50:20;;;;;;;61.43;27.43;;;18.10;99.90;;;;;;5112765;28;20312;-77
2021/07/04 02:52:47;;;;;;;53.23;26.17;;;18.00;99.90;;;;;;5094112;28;20203;-81
2021/07/04 02:55:14;;;;;;;55.87;25.63;;;18.10;99.90;;;;;;5092545;28;20681;-80
2021/07/04 02:57:41;;;;;;;50.73;24.77;;;18.10;99.90;;;;;;5092461;28;20226;-77
2021/07/04 03:00:11;;;;;;;53.90;24.57;;;18.10;99.90;;;;;;5092469;28;20281;-78
2021/07/04 03:02:38;;;;;;;64.77;26.57;;;18.10;99.90;;;;;;5092571;28;20198;-78
2021/07/04 03:05:06;;;;;;;51.73;24.40;;;18.20;99.90;;;;;;5092558;28;20201;-80
2021/07/04 03:07:35;;;;;;;70.50;25.37;;;18.20;99.90;;;;;;5092318;28;20205;-79
2021/07/04 03:10:03;;;;;;;58.17;24.67;;;18.20;99.90;;;;;;5092250;28;20248;-81
2021/07/04 03:12:30;;;;;;;56.60;24.73;;;18.20;99.90;;;;;;5090228;28;20191;-81
2021/07/04 03:14:57;;;;;;;50.73;24.07;;;18.20;99.90;;;;;;5112743;28;20194;-77
2021/07/04 03:17:24;;;;;;;57.87;24.57;;;18.20;99.90;;;;;;5104812;28;20277;-78
2021/07/04 03:19:51;;;;;;;53.10;24.67;;;18.20;99.90;;;;;;5092262;28;20234;-77
2021/07/04 03:22:18;;;;;;;58.90;25.53;;;18.20;99.90;;;;;;5092437;28;20195;-77
2021/07/04 03:24:46;;;;;;;61.27;24.17;;;18.20;99.90;;;;;;5092077;28;20198;-77
2021/07/04 03:27:13;;;;;;;55.33;23.53;;;18.20;99.90;;;;;;5080332;28;20281;-77
2021/07/04 03:29:40;;;;;;;54.43;23.97;;;18.20;99.90;;;;;;5083842;28;20282;-79
2021/07/04 03:32:08;;;;;;;57.10;23.17;;;18.20;99.90;;;;;;5071998;28;20249;-78
2021/07/04 03:34:35;;;;;;;56.57;23.90;;;18.20;99.90;;;;;;5072164;28;20202;-78
2021/07/04 03:37:02;;;;;;;45.30;21.47;;;18.20;99.90;;;;;;5074136;28;20199;-77
2021/07/04 03:39:29;;;;;;;45.33;22.73;;;18.20;99.90;;;;;;5076357;28;20278;-77
2021/07/04 03:41:57;;;;;;;42.73;21.37;;;18.20;99.90;;;;;;5075998;28;20725;-78
2021/07/04 03:44:24;;;;;;;50.50;21.63;;;18.10;99.90;;;;;;5075917;28;20282;-77
2021/07/04 03:46:51;;;;;;;43.80;20.40;;;18.10;99.90;;;;;;5075951;28;20640;-77
2021/07/04 03:49:18;;;;;;;44.33;20.57;;;18.10;99.90;;;;;;5075807;28;20195;-80
2021/07/04 03:51:45;;;;;;;44.93;21.80;;;18.10;99.90;;;;;;5075790;28;20657;-77
2021/07/04 03:54:12;;;;;;;48.63;21.63;;;18.10;99.90;;;;;;5075891;28;20290;-77
2021/07/04 03:56:39;;;;;;;46.67;21.57;;;18.10;99.90;;;;;;5075809;28;20278;-78
2021/07/04 03:59:07;;;;;;;45.93;22.57;;;18.00;99.90;;;;;;5075697;28;20196;-79
2021/07/04 04:01:34;;;;;;;52.77;22.90;;;18.10;99.90;;;;;;5076053;28;20233;-76
2021/07/04 04:04:01;;;;;;;42.30;21.40;;;18.20;99.90;;;;;;5075858;28;20632;-77
2021/07/04 04:06:28;;;;;;;45.90;22.47;;;18.20;99.90;;;;;;5097126;28;20281;-76
2021/07/04 04:08:54;;;;;;;47.83;21.90;;;18.30;99.90;;;;;;5116295;28;20277;-76
2021/07/04 04:11:21;;;;;;;49.00;21.67;;;18.30;99.90;;;;;;5116107;28;20218;-77
2021/07/04 04:13:48;;;;;;;41.57;21.57;;;18.30;99.90;;;;;;5116304;28;20237;-79
2021/07/04 04:16:16;;;;;;;51.27;23.10;;;18.40;99.90;;;;;;5116317;28;20285;-78
2021/07/04 04:18:44;;;;;;;41.43;22.43;;;18.40;99.90;;;;;;5116092;28;20233;-76
2021/07/04 04:21:11;;;;;;;43.40;22.13;;;18.50;99.90;;;;;;5115955;28;20572;-77
2021/07/04 04:23:38;;;;;;;44.10;21.40;;;18.60;99.90;;;;;;5105726;28;20205;-78
2021/07/04 04:26:05;;;;;;;37.67;21.10;;;18.70;99.90;;;;;;5095564;28;20548;-77
2021/07/04 04:28:32;;;;;;;39.07;20.33;;;18.80;99.90;;;;;;5095903;28;20260;-77
2021/07/04 04:30:59;;;;;;;33.67;19.83;;;18.90;99.90;;;;;;5095295;28;20314;-77
2021/07/04 04:33:27;;;;;;;33.63;19.10;;;19.10;99.90;;;;;;5095609;28;20298;-79
2021/07/04 04:35:54;;;;;;;34.10;19.57;;;19.10;99.90;;;;;;5095395;28;20230;-77
2021/07/04 04:38:21;;;;;;;33.70;18.60;;;19.10;99.90;;;;;;5095294;28;20233;-77
2021/07/04 04:40:48;;;;;;;25.60;17.77;;;19.20;99.90;;;;;;5095309;28;20293;-77
2021/07/04 04:43:15;;;;;;;27.70;16.73;;;19.20;99.90;;;;;;5095366;28;20201;-77
2021/07/04 04:45:42;;;;;;;30.43;17.90;;;19.10;99.90;;;;;;5095314;28;20286;-77
2021/07/04 04:48:09;;;;;;;25.70;17.97;;;19.10;99.90;;;;;;5094692;28;20712;-76
2021/07/04 04:50:38;;;;;;;28.33;17.23;;;19.10;99.90;;;;;;5095117;28;20193;-77
2021/07/04 04:53:05;;;;;;;25.87;16.70;;;19.00;99.90;;;;;;5095041;28;20206;-76
2021/07/04 04:55:31;;;;;;;26.27;17.43;;;19.00;99.90;;;;;;5094659;28;20281;-78
2021/07/04 04:57:58;;;;;;;25.73;16.97;;;19.10;99.90;;;;;;5094679;28;20671;-80
2021/07/04 05:00:25;;;;;;;30.53;17.80;;;19.10;99.90;;;;;;5094903;28;20623;-76
2021/07/04 05:02:52;;;;;;;21.97;16.13;;;19.20;99.90;;;;;;5094469;28;20226;-77
2021/07/04 05:05:19;;;;;;;20.40;15.67;;;19.30;99.90;;;;;;5095524;28;20226;-80
2021/07/04 05:07:48;;;;;;;22.67;16.13;;;19.50;99.90;;;;;;5115010;28;20229;-77
2021/07/04 05:10:15;;;;;;;22.70;15.93;;;19.90;99.90;;;;;;5115155;28;20267;-77
2021/07/04 05:12:42;;;;;;;18.03;14.17;;;20.80;99.90;;;;;;5114533;28;20321;-79
2021/07/04 05:15:09;;;;;;;18.85;12.05;;;22.80;99.90;;;;;;5114662;28;20230;-77
2021/07/04 05:17:36;;;;;;;13.52;10.95;;;25.00;99.90;;;;;;5114959;28;20309;-80
2021/07/04 05:20:04;;;;;;;10.48;9.38;;;26.30;99.90;;;;;;5114513;28;20281;-77
2021/07/04 05:22:31;;;;;;;8.38;7.50;;;27.60;99.90;;;;;;5114264;28;20200;-80
2021/07/04 05:24:59;;;;;;;6.68;6.07;;;29.40;99.90;;;;;;5114426;28;20552;-78
2021/07/04 05:27:26;;;;;;;8.80;6.95;;;30.00;99.90;;;;;;5114530;27;20228;-77
2021/07/04 05:29:53;;;;;;;7.78;6.43;;;29.60;99.90;;;;;;5114406;27;20579;-78
2021/07/04 05:32:21;;;;;;;7.28;6.57;;;29.40;99.90;;;;;;5111113;28;20962;-77
2021/07/04 05:34:48;;;;;;;8.10;6.35;;;30.40;99.90;;;;;;5093509;28;20229;-78
2021/07/04 05:37:16;;;;;;;6.88;6.28;;;30.70;99.90;;;;;;5093515;28;20289;-80
2021/07/04 05:39:43;;;;;;;6.70;5.88;;;30.10;99.90;;;;;;5093396;28;20547;-80
2021/07/04 05:42:11;;;;;;;9.10;5.72;;;29.30;99.90;;;;;;5093538;28;20605;-78
2021/07/04 05:44:38;;;;;;;6.55;5.95;;;28.60;99.90;;;;;;5093348;28;20286;-77
2021/07/04 05:47:05;;;;;;;7.78;5.95;;;28.00;99.90;;;;;;5093510;28;20285;-77
2021/07/04 05:49:32;;;;;;;7.75;6.07;;;27.40;99.90;;;;;;5093201;28;20295;-79
2021/07/04 05:51:59;;;;;;;6.43;5.82;;;27.00;99.90;;;;;;5093825;28;20226;-78
2021/07/04 05:54:26;;;;;;;8.48;6.80;;;26.80;99.90;;;;;;5093665;28;20231;-78
2021/07/04 05:56:53;;;;;;;7.78;6.28;;;26.70;99.90;;;;;;5093617;28;20227;-78
2021/07/04 05:59:21;;;;;;;6.80;6.20;;;26.70;99.90;;;;;;5092736;28;20610;-77
2021/07/04 06:01:48;;;;;;;6.53;5.93;;;26.60;99.90;;;;;;5093425;28;20312;-77
2021/07/04 06:04:15;;;;;;;7.25;5.35;;;26.70;99.90;;;;;;5093268;28;20226;-77
2021/07/04 06:06:42;;;;;;;6.28;5.68;;;27.50;99.90;;;;;;5105864;28;20692;-77
2021/07/04 06:09:09;;;;;;;5.95;5.28;;;28.80;99.90;;;;;;5113804;28;20555;-77
2021/07/04 06:11:35;;;;;;;5.80;5.22;;;29.40;99.90;;;;;;5113486;28;20306;-77
2021/07/04 06:14:02;;;;;;;7.78;6.00;;;29.90;99.90;;;;;;5101966;28;20509;-80
2021/07/04 06:16:31;;;;;;;6.50;5.90;;;30.00;99.90;;;;;;5102590;28;20198;-77
2021/07/04 06:18:58;;;;;;;7.55;5.82;;;29.80;99.90;;;;;;5109831;28;20283;-80
2021/07/04 06:21:25;;;;;;;6.25;5.63;;;29.80;99.90;;;;;;5100696;28;20203;-77
2021/07/04 06:23:52;;;;;;;5.82;5.32;;;29.30;99.90;;;;;;5092442;28;20267;-80
2021/07/04 06:26:19;;;;;;;6.32;5.72;;;28.50;99.90;;;;;;5090803;28;20695;-77
2021/07/04 06:28:46;;;;;;;6.72;5.90;;;28.20;99.90;;;;;;5090146;28;20205;-77
2021/07/04 06:31:13;;;;;;;5.85;5.35;;;28.20;99.90;;;;;;5091837;28;20198;-77
2021/07/04 06:33:41;;;;;;;7.03;5.90;;;28.20;99.90;;;;;;5092657;28;20301;-80
2021/07/04 06:36:08;;;;;;;5.47;4.97;;;28.00;99.90;;;;;;5091575;28;20281;-78
2021/07/04 06:38:35;;;;;;;6.57;5.28;;;28.00;99.90;;;;;;5097242;28;20227;-77
2021/07/04 06:41:02;;;;;;;7.47;6.30;;;27.80;99.90;;;;;;5104171;28;20194;-76
2021/07/04 06:43:29;;;;;;;8.25;6.15;;;27.70;99.90;;;;;;5112779;28;20221;-80
2021/07/04 06:45:55;;;;;;;8.10;6.55;;;27.70;99.90;;;;;;5112591;28;20190;-80
2021/07/04 06:48:22;;;;;;;6.18;5.57;;;27.90;99.90;;;;;;5112476;28;20198;-77
2021/07/04 06:50:51;;;;;;;5.97;5.47;;;29.80;99.90;;;;;;5095013;28;20199;-77
2021/07/04 06:53:18;;;;;;;6.20;5.60;;;31.90;99.90;;;;;;5091999;28;20325;-78
2021/07/04 06:55:44;;;;;;;6.90;5.22;;;32.20;99.90;;;;;;5110044;28;20201;-80
2021/07/04 06:58:11;;;;;;;6.93;5.03;;;33.10;99.90;;;;;;5112744;28;20297;-77
2021/07/04 07:00:38;;;;;;;5.35;4.85;;;34.70;99.90;;;;;;5098271;28;20289;-79
2021/07/04 07:03:05;;;;;;;5.30;4.47;;;33.90;99.90;;;;;;5092044;28;20556;-78
2021/07/04 07:05:32;;;;;;;7.97;3.97;;;33.20;99.90;;;;;;5090959;28;20313;-77
2021/07/04 07:08:01;;;;;;;4.00;3.70;;;33.30;99.90;;;;;;5100483;28;20290;-79
2021/07/04 07:10:27;;;;;;;4.07;3.75;;;32.90;99.90;;;;;;5092367;28;20289;-78
2021/07/04 07:12:54;;;;;;;5.55;3.55;;;31.90;99.90;;;;;;5115200;28;20574;-79
2021/07/04 07:15:21;;;;;;;4.50;3.95;;;31.00;99.90;;;;;;5116229;27;20475;-78
2021/07/04 07:17:48;;;;;;;4.15;3.72;;;30.50;99.90;;;;;;5101776;27;20321;-78
2021/07/04 07:20:16;;;;;;;4.38;3.58;;;31.60;99.90;;;;;;5106416;28;20281;-81
2021/07/04 07:22:43;;;;;;;4.22;3.92;;;32.50;99.90;;;;;;5116193;28;20233;-77
2021/07/04 07:25:13;;;;;;;4.18;3.78;;;32.80;99.90;;;;;;5098484;28;20201;-79
2021/07/04 07:27:40;;;;;;;4.32;3.95;;;33.10;99.90;;;;;;5095800;28;20285;-80
2021/07/04 07:30:09;;;;;;;3.42;3.22;;;33.50;99.90;;;;;;5116270;28;20241;-78
2021/07/04 07:32:36;;;;;;;3.72;3.38;;;32.90;99.90;;;;;;5115709;28;20218;-79
2021/07/04 07:35:04;;;;;;;3.78;3.33;;;32.60;99.90;;;;;;5100188;28;20669;-78
2021/07/04 07:37:31;;;;;;;5.13;3.83;;;32.20;99.90;;;;;;5109890;28;20229;-80
2021/07/04 07:39:58;;;;;;;3.30;3.00;;;31.50;99.90;;;;;;5097022;28;20243;-80
2021/07/04 07:42:26;;;;;;;3.83;3.50;;;31.60;99.90;;;;;;5094308;28;20219;-78
2021/07/04 07:44:53;;;;;;;4.63;3.05;;;31.70;99.90;;;;;;5109034;28;20226;-78
2021/07/04 07:47:20;;;;;;;4.07;3.47;;;31.90;99.90;;;;;;5075055;28;20665;-80
2021/07/04 07:49:47;;;;;;;3.88;3.53;;;31.50;99.90;;;;;;5083309;28;20230;-80
2021/07/04 07:52:14;;;;;;;4.75;3.50;;;31.40;99.90;;;;;;5095620;28;20305;-78
2021/07/04 07:54:41;;;;;;;5.85;3.50;;;31.50;99.90;;;;;;5094309;28;20198;-78
2021/07/04 07:57:08;;;;;;;3.10;2.78;;;31.30;99.90;;;;;;5105008;28;20244;-78
2021/07/04 07:59:36;;;;;;;3.50;3.20;;;31.70;99.90;;;;;;5096774;28;20617;-79
2021/07/04 08:02:04;;;;;;;3.00;2.78;;;31.00;99.90;;;;;;5101446;28;20329;-78
2021/07/04 08:04:31;;;;;;;5.38;3.15;;;30.40;99.90;;;;;;5094382;28;20885;-78
2021/07/04 08:06:58;;;;;;;4.20;2.80;;;29.90;99.90;;;;;;5108434;28;20191;-77
2021/07/04 08:09:25;;;;;;;2.28;2.08;;;29.30;99.90;;;;;;5101057;28;20234;-79
2021/07/04 08:11:51;;;;;;;2.17;1.50;;;29.10;99.90;;;;;;5093777;28;20700;-77
2021/07/04 08:14:18;;;;;;;5.45;2.80;;;29.20;99.90;;;;;;5107478;28;20198;-77
2021/07/04 08:16:46;;;;;;;4.78;3.47;;;28.90;99.90;;;;;;5109770;28;20290;-80
2021/07/04 08:19:14;;;;;;;9.25;3.70;;;28.80;99.90;;;;;;5094753;28;20234;-78
2021/07/04 08:21:41;;;;;;;3.95;3.55;;;28.80;99.90;;;;;;5091615;28;20546;-79
2021/07/04 08:24:08;;;;;;;3.70;3.40;;;28.70;99.90;;;;;;5093276;28;20249;-78
2021/07/04 08:26:35;;;;;;;3.90;3.35;;;28.40;99.90;;;;;;5093850;28;20282;-78
2021/07/04 08:29:02;;;;;;;6.28;3.67;;;28.00;99.90;;;;;;5093851;28;20214;-80
2021/07/04 08:31:29;;;;;;;3.47;3.17;;;27.70;99.90;;;;;;5094968;28;20194;-78
2021/07/04 08:33:57;;;;;;;3.85;3.45;;;27.80;99.90;;;;;;5093954;28;20215;-78
2021/07/04 08:36:25;;;;;;;5.70;3.58;;;28.00;99.90;;;;;;5094067;28;20274;-78
2021/07/04 08:38:52;;;;;;;5.15;3.28;;;27.90;99.90;;;;;;5094500;28;20199;-78
2021/07/04 08:41:19;;;;;;;4.10;3.08;;;27.70;99.90;;;;;;5094206;28;20564;-77
2021/07/04 08:43:46;;;;;;;3.60;3.30;;;27.40;99.90;;;;;;5093219;28;20187;-77
2021/07/04 08:46:13;;;;;;;5.47;3.78;;;26.70;99.90;;;;;;5091132;28;20203;-77
2021/07/04 08:48:41;;;;;;;4.20;3.80;;;26.10;99.90;;;;;;5092809;28;20267;-77
2021/07/04 08:51:11;;;;;;;4.35;3.20;;;26.10;99.90;;;;;;5098612;28;20199;-78
2021/07/04 08:53:38;;;;;;;3.80;3.40;;;26.00;99.90;;;;;;5092698;28;20298;-77
2021/07/04 08:56:06;;;;;;;3.53;3.08;;;26.30;99.90;;;;;;5079768;28;20271;-76
2021/07/04 08:58:33;;;;;;;3.65;3.00;;;26.00;99.90;;;;;;5088741;28;20290;-78
2021/07/04 09:01:15;;;;;;;4.45;2.95;;;26.00;99.90;;;;;;5084678;28;20196;-77
2021/07/04 09:03:45;;;;;;;4.85;3.70;;;25.80;99.90;;;;;;5091444;28;20222;-77
2021/07/04 09:06:14;;;;;;;4.47;3.72;;;25.50;99.90;;;;;;5096725;28;20195;-77
2021/07/04 09:08:41;;;;;;;5.97;4.82;;;25.30;99.90;;;;;;5094668;28;20681;-77
2021/07/04 09:11:17;;;;;;;8.40;4.68;;;24.90;99.90;;;;;;5098135;28;20198;-77
2021/07/04 09:13:46;;;;;;;5.18;4.68;;;24.30;99.90;;;;;;5083146;28;20710;-77
2021/07/04 09:16:15;;;;;;;5.07;4.57;;;23.90;99.90;;;;;;5085982;28;20211;-77
2021/07/04 09:18:42;;;;;;;6.32;4.25;;;24.00;99.90;;;;;;5092919;28;20211;-78
2021/07/04 09:21:31;;;;;;;4.93;4.50;;;24.30;99.90;;;;;;5092501;28;20551;-77
2021/07/04 09:23:58;;;;;;;4.68;4.03;;;24.60;99.90;;;;;;5090761;28;20248;-78
2021/07/04 09:26:43;;;;;;;5.82;4.25;;;24.60;99.90;;;;;;5088738;28;20202;-76
2021/07/04 09:29:11;;;;;;;4.85;4.40;;;23.70;99.90;;;;;;5092961;28;20222;-76
2021/07/04 09:31:39;;;;;;;4.88;4.38;;;23.80;99.90;;;;;;5093368;28;20255;-77
2021/07/04 09:34:08;;;;;;;5.82;5.05;;;23.60;99.90;;;;;;5091712;28;20305;-79
2021/07/04 09:36:36;;;;;;;4.40;4.00;;;23.40;99.90;;;;;;5092937;28;20538;-77
2021/07/04 09:39:17;;;;;;;5.05;4.18;;;23.70;99.90;;;;;;5092922;28;20214;-76
2021/07/04 09:42:03;;;;;;;4.97;3.97;;;23.80;99.90;;;;;;5096778;28;20198;-77
2021/07/04 09:44:30;;;;;;;5.07;3.88;;;23.30;99.90;;;;;;5090233;28;20225;-78
2021/07/04 09:47:18;;;;;;;4.65;3.80;;;22.80;99.90;;;;;;5090923;28;20230;-79
2021/07/04 09:49:46;;;;;;;4.03;3.72;;;22.70;99.90;;;;;;5092160;28;20194;-76
2021/07/04 09:52:17;;;;;;;4.25;3.85;;;23.10;99.90;;;;;;5092753;28;20227;-76
2021/07/04 09:54:55;;;;;;;4.80;3.53;;;23.30;99.90;;;;;;5092285;28;20606;-80
2021/07/04 09:57:22;;;;;;;4.85;3.53;;;23.40;99.90;;;;;;5094892;28;20277;-77
2021/07/04 09:59:50;;;;;;;4.57;3.60;;;23.70;99.90;;;;;;5082321;28;20203;-77
2021/07/04 10:02:18;;;;;;;6.07;3.83;;;23.60;99.90;;;;;;5093672;28;20298;-79
2021/07/04 10:04:45;;;;;;;4.47;3.45;;;23.60;99.90;;;;;;5110554;28;20720;-79
2021/07/04 10:07:12;;;;;;;3.78;3.42;;;23.40;99.90;;;;;;5091693;28;20191;-78
2021/07/04 10:09:41;;;;;;;3.63;3.33;;;23.40;99.90;;;;;;5091752;28;20617;-78
2021/07/04 10:12:09;;;;;;;3.05;2.75;;;23.40;99.90;;;;;;5090460;28;20207;-78
2021/07/04 10:14:37;;;;;;;2.78;2.50;;;23.40;99.90;;;;;;5093268;28;20226;-78
2021/07/04 10:17:04;;;;;;;6.00;3.35;;;22.90;99.90;;;;;;5080778;28;20313;-80
2021/07/04 10:19:33;;;;;;;5.00;2.80;;;23.00;99.90;;;;;;5086686;28;20292;-79
2021/07/04 10:22:02;;;;;;;3.65;3.35;;;23.00;99.90;;;;;;5091623;28;20222;-78
2021/07/04 10:24:29;;;;;;;5.50;3.17;;;23.40;99.90;;;;;;5090741;28;20730;-78
2021/07/04 10:27:02;;;;;;;3.28;2.90;;;23.10;99.90;;;;;;5091555;28;20211;-78
2021/07/04 10:29:30;;;;;;;3.55;2.70;;;22.90;99.90;;;;;;5092199;28;20211;-79
2021/07/04 10:32:06;;;;;;;6.20;2.80;;;22.60;99.90;;;;;;5093486;28;20282;-79
2021/07/04 10:34:43;;;;;;;3.38;3.08;;;22.60;99.90;;;;;;5094282;28;20206;-79
2021/07/04 10:37:10;;;;;;;3.63;3.00;;;22.60;99.90;;;;;;5093021;28;20202;-80
2021/07/04 10:39:37;;;;;;;5.32;2.85;;;22.70;99.90;;;;;;5093623;28;20195;-79
2021/07/04 10:42:08;;;;;;;9.07;1.23;;;22.10;99.90;;;;;;5092557;28;20206;-78
2021/07/04 10:44:41;;;;;;;5.87;1.13;;;20.90;99.90;;;;;;5092336;28;20202;-78
2021/07/04 10:47:10;;;;;;;4.93;1.10;;;19.70;99.90;;;;;;5091733;28;20253;-77
2021/07/04 10:49:46;;;;;;;2.83;0.80;;;18.60;99.90;;;;;;5091317;28;20522;-81
2021/07/04 10:52:19;;;;;;;5.73;0.90;;;17.80;99.90;;;;;;5094297;28;20298;-79
2021/07/04 10:54:52;;;;;;;4.37;0.63;;;17.30;99.90;;;;;;5092771;28;20644;-81
2021/07/04 10:57:25;;;;;;;5.37;0.70;;;16.80;99.90;;;;;;5092336;28;20260;-79
2021/07/04 11:00:14;;;;;;;4.10;0.80;;;16.60;99.90;;;;;;5090612;28;20194;-79
2021/07/04 11:02:42;;;;;;;2.50;0.70;;;16.20;99.90;;;;;;5087879;28;20256;-79
2021/07/04 11:05:13;;;;;;;1.63;0.53;;;16.00;99.90;;;;;;5087905;28;20290;-80
2021/07/04 11:08:17;;;;;;;1.80;0.60;;;15.90;99.90;;;;;;5092047;28;20285;-79
2021/07/04 11:11:09;;;;;;;1.53;0.60;;;15.80;99.90;;;;;;5093810;28;20241;-80
2021/07/04 11:13:49;;;;;;;1.90;0.83;;;15.70;99.90;;;;;;5094562;28;20753;-80
2021/07/04 11:16:23;;;;;;;1.50;0.83;;;15.70;99.90;;;;;;5097169;28;20183;-79
2021/07/04 11:18:53;;;;;;;12.40;1.00;;;15.80;99.90;;;;;;5096171;28;20203;-80
2021/07/04 11:21:23;;;;;;;5.80;1.33;;;15.80;99.90;;;;;;5096670;28;20193;-79
2021/07/04 11:24:17;;;;;;;5.10;1.23;;;15.80;99.90;;;;;;5093385;28;20229;-81
2021/07/04 11:27:05;;;;;;;4.30;1.30;;;15.80;99.90;;;;;;5092712;28;20202;-79
2021/07/04 11:29:33;;;;;;;1.63;1.30;;;15.80;99.90;;;;;;5092619;28;20195;-81
2021/07/04 11:32:24;;;;;;;3.30;1.13;;;15.90;99.90;;;;;;5096066;28;20230;-80
2021/07/04 11:34:51;;;;;;;3.30;1.03;;;16.10;99.90;;;;;;5095505;28;20217;-79
2021/07/04 11:37:18;;;;;;;4.90;1.20;;;16.30;99.90;;;;;;5096591;28;20260;-81
2021/07/04 11:39:58;;;;;;;1.37;0.80;;;16.60;99.90;;;;;;5097796;28;20222;-79
2021/07/04 11:42:26;;;;;;;5.40;0.83;;;16.80;99.90;;;;;;5094717;28;20195;-81
2021/07/04 11:44:54;;;;;;;1.37;0.90;;;17.00;99.90;;;;;;5096418;28;20195;-78
2021/07/04 11:47:21;;;;;;;3.07;0.90;;;17.10;99.90;;;;;;5096910;28;20199;-79
2021/07/04 11:49:48;;;;;;;2.20;0.90;;;17.30;99.90;;;;;;5094844;28;20692;-83
2021/07/04 11:52:20;;;;;;;2.70;0.80;;;17.40;99.90;;;;;;5095553;28;20234;-78
2021/07/04 11:54:48;;;;;;;0.60;0.60;;;17.60;99.90;;;;;;5092798;28;20215;-80
2021/07/04 11:57:31;;;;;;;0.50;0.50;;;17.60;99.90;;;;;;5093754;28;20199;-81
2021/07/04 12:00:01;;;;;;;0.50;0.50;;;17.60;99.90;;;;;;5098937;28;20187;-79
2021/07/04 12:02:29;;;;;;;1.63;0.60;;;17.50;99.90;;;;;;5096577;28;20600;-82
2021/07/04 12:04:56;;;;;;;2.20;0.50;;;17.70;99.90;;;;;;5097703;28;20205;-79
2021/07/04 12:07:25;;;;;;;3.30;0.80;;;17.90;99.90;;;;;;5097411;28;20234;-80
2021/07/04 12:09:53;;;;;;;1.03;0.50;;;18.00;99.90;;;;;;5094805;28;20191;-79
2021/07/04 12:12:22;;;;;;;3.20;0.50;;;18.10;99.90;;;;;;5095686;28;20195;-80
2021/07/04 12:14:51;;;;;;;1.77;0.70;;;17.80;99.90;;;;;;5095388;28;20700;-80
2021/07/04 12:17:23;;;;;;;0.60;0.53;;;17.70;99.90;;;;;;5098829;28;20233;-79
2021/07/04 12:19:59;;;;;;;1.87;0.60;;;17.50;99.90;;;;;;5096576;28;20223;-80
2021/07/04 12:22:28;;;;;;;2.13;0.70;;;17.60;99.90;;;;;;5095087;28;20615;-82
2021/07/04 12:24:57;;;;;;;0.97;0.60;;;17.60;99.90;;;;;;5095355;28;20285;-79
2021/07/04 12:27:35;;;;;;;1.23;0.60;;;17.70;99.90;;;;;;5093990;28;20244;-80
2021/07/04 12:30:10;;;;;;;2.00;0.60;;;17.50;99.90;;;;;;5090175;28;20610;-79
2021/07/04 12:32:42;;;;;;;1.77;0.80;;;17.70;99.90;;;;;;5094023;28;20190;-79
2021/07/04 12:35:18;;;;;;;1.03;0.70;;;17.60;99.90;;;;;;5095950;28;20271;-80
2021/07/04 12:37:45;;;;;;;0.80;0.70;;;17.70;99.90;;;;;;5095011;28;20257;-80
2021/07/04 12:40:14;;;;;;;0.90;0.70;;;17.90;99.90;;;;;;5095333;28;20222;-78
2021/07/04 12:42:43;;;;;;;1.90;0.70;;;18.20;99.90;;;;;;5093924;28;20244;-82
2021/07/04 12:45:13;;;;;;;2.00;0.77;;;18.60;99.90;;;;;;5095955;28;20282;-79